createdAt,value
2018-11-04T00:01:33.097Z,17.83
2018-11-04T00:06:37.914Z,18.17
2018-11-04T00:11:43.307Z,18.33
2018-11-04T00:16:48.023Z,19.30
2018-11-04T00:21:52.673Z,19.40
2018-11-04T00:26:57.209Z,19.30
2018-11-04T00:32:01.566Z,20.10
2018-11-04T00:37:09.464Z,17.73
2018-11-04T00:42:23.394Z,18.23
2018-11-04T00:47:29.739Z,18.67
2018-11-04T00:52:34.994Z,19.13
2018-11-04T00:57:40.242Z,19.30
2018-11-04T01:02:46.003Z,18.17
2018-11-04T01:07:51.482Z,20.93
2018-11-04T01:12:55.984Z,19.77
2018-11-04T01:18:00.815Z,20.77
2018-11-04T01:23:13.079Z,20.43
2018-11-04T01:28:18.903Z,19.90
2018-11-04T01:33:27.666Z,20.37
2018-11-04T01:38:33.029Z,21.00
2018-11-04T01:43:39.104Z,20.53
2018-11-04T01:48:44.604Z,20.33
2018-11-04T01:53:49.001Z,21.33
2018-11-04T01:58:53.577Z,20.67
2018-11-04T02:03:59.593Z,21.70
2018-11-04T02:09:04.492Z,21.17
2018-11-04T02:14:09.833Z,21.60
2018-11-04T02:19:15.838Z,21.97
2018-11-04T02:24:20.123Z,21.63
2018-11-04T02:29:24.523Z,22.23
2018-11-04T02:34:29.017Z,22.13
2018-11-04T02:39:34.079Z,23.17
2018-11-04T02:44:39.428Z,21.80
2018-11-04T02:49:44.195Z,21.37
2018-11-04T02:54:48.608Z,21.20
2018-11-04T02:59:52.999Z,21.37
2018-11-04T03:10:30.076Z,20.93
2018-11-04T03:15:34.507Z,21.13
2018-11-04T03:20:38.803Z,21.63
2018-11-04T03:25:43.163Z,20.80
2018-11-04T03:30:47.632Z,21.37
2018-11-04T03:35:52.251Z,20.57
2018-11-04T03:40:58.694Z,21.17
2018-11-04T03:46:03.847Z,20.63
2018-11-04T03:51:08.333Z,20.73
2018-11-04T03:56:12.831Z,19.80
2018-11-04T04:01:17.364Z,20.00
2018-11-04T04:06:22.396Z,21.13
2018-11-04T04:11:26.600Z,20.30
2018-11-04T04:16:30.859Z,19.27
2018-11-04T04:21:35.643Z,20.87
2018-11-04T04:26:41.437Z,20.97
2018-11-04T04:31:47.037Z,19.10
2018-11-04T04:36:52.389Z,21.50
2018-11-04T04:41:57.138Z,21.20
2018-11-04T04:47:01.639Z,20.67
2018-11-04T04:57:38.203Z,20.53
2018-11-04T05:02:42.986Z,20.57
2018-11-04T05:07:47.834Z,21.40
2018-11-04T05:12:52.007Z,21.13
2018-11-04T05:17:57.188Z,20.50
2018-11-04T05:23:07.715Z,21.80
2018-11-04T05:28:13.995Z,20.50
2018-11-04T05:33:22.049Z,21.00
2018-11-04T05:38:27.832Z,20.53
2018-11-04T05:43:32.215Z,21.53
2018-11-04T05:48:37.348Z,20.90
2018-11-04T05:53:42.739Z,22.07
2018-11-04T05:58:46.970Z,23.17
2018-11-04T06:03:51.357Z,21.17
2018-11-04T06:08:56.845Z,22.53
2018-11-04T06:14:01.381Z,21.70
2018-11-04T06:19:06.176Z,20.53
2018-11-04T06:24:11.007Z,21.90
2018-11-04T06:29:15.373Z,21.50
2018-11-04T06:34:33.166Z,22.13
2018-11-04T06:39:37.406Z,23.03
2018-11-04T06:44:42.449Z,21.90
2018-11-04T06:49:47.879Z,21.50
2018-11-04T06:54:52.371Z,21.07
2018-11-04T06:59:57.232Z,21.57
2018-11-04T07:05:01.564Z,22.20
2018-11-04T07:10:07.725Z,21.97
2018-11-04T07:15:12.021Z,21.97
2018-11-04T07:20:16.253Z,21.53
2018-11-04T07:25:21.196Z,20.63
2018-11-04T07:30:26.259Z,21.20
2018-11-04T07:35:30.701Z,21.83
2018-11-04T07:40:35.075Z,22.03
2018-11-04T07:45:39.473Z,21.50
2018-11-04T07:50:44.319Z,21.83
2018-11-04T07:55:49.000Z,21.63
2018-11-04T08:00:53.655Z,21.80
2018-11-04T08:05:58.069Z,20.63
2018-11-04T08:11:03.502Z,22.30
2018-11-04T08:16:08.007Z,23.07
2018-11-04T08:21:12.814Z,23.23
2018-11-04T08:26:18.785Z,21.17
2018-11-04T08:31:23.916Z,22.23
2018-11-04T08:36:28.452Z,22.97
2018-11-04T08:41:38.070Z,23.37
2018-11-04T08:46:42.807Z,23.00
2018-11-04T08:51:53.583Z,23.60
2018-11-04T08:56:58.205Z,22.43
2018-11-04T09:02:02.856Z,22.27
2018-11-04T09:07:07.564Z,22.80
2018-11-04T09:12:12.245Z,22.43
2018-11-04T09:17:16.777Z,22.70
2018-11-04T09:22:21.707Z,24.07
2018-11-04T09:27:26.121Z,23.23
2018-11-04T09:32:30.654Z,24.00
2018-11-04T09:37:35.507Z,22.93
2018-11-04T09:42:47.274Z,22.63
2018-11-04T09:47:52.385Z,23.47
2018-11-04T09:52:57.654Z,23.73
2018-11-04T09:58:03.943Z,24.07
2018-11-04T10:03:10.197Z,22.73
2018-11-04T10:08:15.450Z,22.37
2018-11-04T10:13:23.069Z,25.20
2018-11-04T10:18:31.132Z,23.07
2018-11-04T10:29:14.081Z,22.93
2018-11-04T10:34:19.494Z,21.70
2018-11-04T10:39:24.897Z,23.90
2018-11-04T10:44:35.260Z,23.57
2018-11-04T10:49:50.949Z,23.00
2018-11-04T10:54:56.634Z,22.70
2018-11-04T11:00:07.126Z,24.90
2018-11-04T11:05:14.391Z,22.90
2018-11-04T11:10:22.967Z,23.00
2018-11-04T11:15:46.202Z,22.87
2018-11-04T11:20:50.770Z,22.53
2018-11-04T11:31:35.601Z,22.37
2018-11-04T11:36:44.217Z,23.77
2018-11-04T11:41:48.924Z,22.67
2018-11-04T11:52:13.537Z,22.27
2018-11-04T11:57:18.391Z,25.07
2018-11-04T12:02:41.022Z,23.23
2018-11-04T12:07:45.670Z,23.30
2018-11-04T12:12:51.026Z,22.70
2018-11-04T12:17:55.964Z,23.13
2018-11-04T12:33:42.712Z,25.00
2018-11-04T12:38:49.100Z,25.23
2018-11-04T12:49:35.466Z,25.07
2018-11-04T12:54:52.098Z,24.23
2018-11-04T12:59:57.787Z,22.60
2018-11-04T13:05:03.422Z,22.73
2018-11-04T13:10:10.185Z,23.07
2018-11-04T13:15:15.856Z,23.60
2018-11-04T13:20:21.034Z,23.03
2018-11-04T13:25:44.242Z,23.00
2018-11-04T13:30:50.810Z,22.03
2018-11-04T13:36:09.384Z,22.43
2018-11-04T13:41:15.194Z,22.43
2018-11-04T13:46:19.807Z,20.77
2018-11-04T13:51:33.960Z,22.23
2018-11-04T13:56:43.052Z,21.97
2018-11-04T14:02:07.904Z,20.80
2018-11-04T14:12:55.575Z,23.53
2018-11-04T14:18:18.499Z,24.10
2018-11-04T14:23:33.177Z,22.10
2018-11-04T14:28:46.853Z,24.00
2018-11-04T15:06:31.889Z,23.20
2018-11-04T15:11:45.423Z,22.03
2018-11-04T15:17:17.677Z,23.07
2018-11-04T15:22:32.884Z,21.70
2018-11-04T15:27:42.574Z,23.73
2018-11-04T15:38:22.755Z,25.53
2018-11-04T15:43:38.174Z,25.87
2018-11-04T15:54:27.077Z,23.80
2018-11-04T15:59:34.866Z,23.40
2018-11-04T16:04:44.551Z,22.63
2018-11-04T16:09:59.151Z,23.77
2018-11-04T16:15:04.245Z,22.83
2018-11-04T16:20:12.687Z,23.63
2018-11-04T16:25:23.120Z,27.07
2018-11-04T16:30:40.349Z,25.00
2018-11-04T16:35:48.604Z,23.97
2018-11-04T16:40:57.838Z,24.87
2018-11-04T16:46:28.403Z,23.90
2018-11-04T16:57:21.419Z,24.30
2018-11-04T17:02:45.381Z,23.87
2018-11-04T17:08:00.708Z,22.63
2018-11-04T17:34:49.100Z,23.90
2018-11-04T17:39:57.048Z,27.17
2018-11-04T17:45:05.993Z,24.80
2018-11-04T17:50:18.167Z,24.03
2018-11-04T17:55:23.254Z,24.50
2018-11-04T18:00:28.733Z,22.73
2018-11-04T18:05:33.517Z,23.23
2018-11-04T18:10:39.553Z,23.70
2018-11-04T18:15:45.821Z,24.87
2018-11-04T18:20:56.290Z,25.43
2018-11-04T18:26:08.130Z,29.50
2018-11-04T18:31:14.981Z,25.93
2018-11-04T18:36:37.983Z,24.63
2018-11-04T18:52:56.405Z,25.57
2018-11-04T19:09:02.902Z,24.97
2018-11-04T19:14:08.728Z,25.20
2018-11-04T19:24:28.286Z,26.37
2018-11-04T19:29:35.315Z,26.27
2018-11-04T19:34:42.757Z,25.53
2018-11-04T19:39:54.487Z,26.60
2018-11-04T19:45:04.031Z,24.70
2018-11-04T19:50:28.035Z,25.73
2018-11-04T20:14:15.396Z,26.73
2018-11-04T20:19:27.925Z,27.83
2018-11-04T20:30:21.040Z,27.23
2018-11-04T20:35:41.573Z,26.63
2018-11-04T20:41:14.858Z,28.73
2018-11-04T20:46:42.860Z,27.63
2018-11-04T21:03:01.850Z,28.00
2018-11-04T21:08:35.476Z,29.63
2018-11-04T21:14:10.196Z,30.57
2018-11-04T21:19:21.896Z,28.70
2018-11-04T21:24:35.752Z,32.27
2018-11-04T21:29:42.041Z,30.53
2018-11-04T21:34:55.521Z,31.53
2018-11-04T21:40:01.501Z,32.00
2018-11-04T21:45:13.341Z,31.20
2018-11-04T21:50:19.564Z,33.13
2018-11-04T21:55:29.528Z,31.13
2018-11-04T22:00:34.954Z,30.93
2018-11-04T22:05:53.306Z,31.07
2018-11-04T22:10:58.952Z,31.47
2018-11-04T22:16:05.693Z,33.60
2018-11-04T22:21:10.436Z,32.87
2018-11-04T22:26:20.326Z,34.43
2018-11-04T22:31:29.286Z,36.00
2018-11-04T22:36:34.558Z,34.70
2018-11-04T22:41:40.169Z,34.53
2018-11-04T22:46:45.326Z,33.00
2018-11-04T22:51:55.001Z,34.67
2018-11-04T22:57:00.670Z,33.77
2018-11-04T23:02:05.315Z,33.53
2018-11-04T23:07:09.701Z,31.40
2018-11-04T23:12:14.093Z,32.83
2018-11-04T23:17:18.812Z,32.20
2018-11-04T23:22:23.339Z,32.93
2018-11-04T23:27:28.092Z,33.83
2018-11-04T23:32:32.399Z,32.33
2018-11-04T23:37:36.863Z,33.90
2018-11-04T23:42:41.457Z,34.60
2018-11-04T23:47:46.394Z,34.57
2018-11-04T23:52:51.035Z,35.73
2018-11-04T23:57:55.590Z,34.80
